Fahud, Oman
Current Conditions -  °F | °C
As of 2:50 AM on Saturday 25 Oct 2014 (Local Time) from EQMN Reporting Station
Clear Clear  
Wind Chill: 79°   Ceiling: Unl
Heat Index: 81°   Visibility: 6mi
Dew Point: 70°   Wind: 1mph
Humidity: 74%   Direction: 310°NW
Pressure: 29.83"   Gusts: NA
Location:  22.35°N, 56.48°E
Report Text: EQMN 242250Z 31001KT 9999 SKC 26/21 Q1010 BLU NOSIG
Loading
Personal Weather Stations






























Interactive Weather Map
Tropical Storm Tracking
New forecast layout! Learn more

10-Day Weather Forecast

Advertisements
Track Severe Weather on mobile